createdAt,value
2019-01-24T00:00:41.072Z,48.77
2019-01-24T00:03:08.359Z,45.50
2019-01-24T00:05:35.610Z,50.60
2019-01-24T00:08:02.960Z,46.37
2019-01-24T00:10:30.241Z,49.87
2019-01-24T00:12:57.497Z,44.87
2019-01-24T00:15:24.767Z,45.77
2019-01-24T00:17:52.056Z,43.27
2019-01-24T00:20:19.306Z,42.10
2019-01-24T00:22:46.586Z,48.47
2019-01-24T00:25:14.209Z,40.93
2019-01-24T00:27:41.542Z,41.97
2019-01-24T00:30:12.651Z,47.97
2019-01-24T00:32:39.930Z,49.23
2019-01-24T00:35:07.797Z,42.53
2019-01-24T00:37:35.077Z,43.30
2019-01-24T00:40:02.401Z,48.57
2019-01-24T00:42:29.943Z,48.17
2019-01-24T00:44:57.193Z,48.77
2019-01-24T00:47:24.724Z,48.87
2019-01-24T00:49:52.226Z,54.47
2019-01-24T00:52:19.507Z,52.70
2019-01-24T00:54:46.767Z,53.87
2019-01-24T00:57:14.034Z,47.00
2019-01-24T00:59:41.290Z,53.43
2019-01-24T01:02:08.571Z,49.67
2019-01-24T01:04:36.101Z,53.00
2019-01-24T01:07:03.698Z,51.83
2019-01-24T01:09:30.978Z,53.23
2019-01-24T01:11:58.257Z,51.13
2019-01-24T01:14:25.578Z,56.93
2019-01-24T01:16:53.099Z,64.53
2019-01-24T01:19:20.645Z,55.27
2019-01-24T01:21:48.251Z,57.90
2019-01-24T01:24:15.583Z,61.30
2019-01-24T01:26:42.870Z,54.30
2019-01-24T01:29:10.191Z,52.60
2019-01-24T01:31:37.472Z,52.27
2019-01-24T01:34:04.787Z,63.13
2019-01-24T01:36:32.355Z,58.63
2019-01-24T01:38:59.863Z,58.47
2019-01-24T01:41:27.109Z,57.60
2019-01-24T01:43:54.401Z,62.03
2019-01-24T01:46:21.728Z,59.17
2019-01-24T01:48:49.245Z,64.43
2019-01-24T01:51:16.761Z,59.97
2019-01-24T01:53:44.039Z,63.97
2019-01-24T01:56:11.290Z,54.80
2019-01-24T01:58:38.842Z,62.77
2019-01-24T02:01:06.266Z,67.70
2019-01-24T02:03:33.546Z,68.63
2019-01-24T02:06:00.802Z,63.50
2019-01-24T02:08:28.329Z,64.10
2019-01-24T02:10:55.873Z,68.53
2019-01-24T02:13:23.211Z,63.20
2019-01-24T02:15:50.741Z,65.40
2019-01-24T02:18:18.243Z,66.50
2019-01-24T02:20:45.531Z,60.10
2019-01-24T02:23:12.808Z,65.63
2019-01-24T02:25:40.314Z,71.47
2019-01-24T02:28:07.593Z,70.73
2019-01-24T02:30:34.847Z,71.40
2019-01-24T02:33:02.214Z,70.77
2019-01-24T02:35:29.732Z,67.03
2019-01-24T02:37:56.990Z,67.73
2019-01-24T02:40:24.277Z,72.23
2019-01-24T02:42:51.526Z,64.60
2019-01-24T02:45:19.977Z,72.87
2019-01-24T02:47:47.550Z,72.77
2019-01-24T02:50:15.706Z,72.27
2019-01-24T02:52:42.957Z,72.17
2019-01-24T02:55:11.301Z,64.23
2019-01-24T02:57:38.803Z,68.93
2019-01-24T03:00:08.107Z,67.80
2019-01-24T03:02:35.632Z,71.30
2019-01-24T03:05:03.254Z,69.50
2019-01-24T03:07:30.510Z,72.00
2019-01-24T03:09:57.802Z,75.80
2019-01-24T03:12:25.298Z,69.50
2019-01-24T03:14:52.561Z,70.00
2019-01-24T03:17:19.842Z,67.90
2019-01-24T03:19:47.128Z,77.40
2019-01-24T03:22:14.411Z,79.10
2019-01-24T03:24:41.915Z,70.63
2019-01-24T03:27:09.441Z,72.27
2019-01-24T03:29:36.974Z,73.43
2019-01-24T03:32:04.246Z,67.90
2019-01-24T03:34:31.750Z,71.57
2019-01-24T03:36:59.281Z,78.97
2019-01-24T03:39:26.538Z,68.97
2019-01-24T03:41:54.071Z,71.47
2019-01-24T03:44:21.328Z,76.37
2019-01-24T03:46:48.687Z,71.30
2019-01-24T03:49:16.194Z,85.67
2019-01-24T03:51:43.478Z,75.37
2019-01-24T03:54:10.727Z,79.10
2019-01-24T03:56:38.265Z,81.00
2019-01-24T03:59:05.538Z,78.90
2019-01-24T04:01:32.794Z,77.00
2019-01-24T04:04:00.399Z,68.87
2019-01-24T04:06:27.721Z,72.50
2019-01-24T04:08:55.087Z,81.17
2019-01-24T04:11:22.338Z,82.20
2019-01-24T04:13:49.616Z,84.17
2019-01-24T04:16:16.889Z,78.30
2019-01-24T04:18:44.149Z,85.00
2019-01-24T04:21:11.417Z,73.03
2019-01-24T04:23:38.950Z,80.40
2019-01-24T04:26:06.473Z,75.43
2019-01-24T04:28:33.733Z,77.63
2019-01-24T04:31:01.154Z,70.83
2019-01-24T04:33:28.438Z,73.40
2019-01-24T04:35:55.952Z,75.90
2019-01-24T04:38:23.252Z,74.67
2019-01-24T04:40:50.497Z,71.03
2019-01-24T04:43:17.774Z,81.17
2019-01-24T04:45:45.030Z,85.90
2019-01-24T04:48:12.575Z,74.97
2019-01-24T04:50:40.111Z,77.73
2019-01-24T04:53:07.400Z,83.47
2019-01-24T04:55:34.650Z,83.60
2019-01-24T04:58:02.183Z,78.50
2019-01-24T05:00:29.849Z,77.23
2019-01-24T05:02:57.433Z,85.77
2019-01-24T05:05:27.948Z,81.67
2019-01-24T05:07:54.080Z,73.20
2019-01-24T05:10:21.419Z,83.73
2019-01-24T05:12:48.701Z,76.90
2019-01-24T05:15:16.294Z,78.47
2019-01-24T05:17:43.719Z,77.97
2019-01-24T05:20:12.306Z,79.03
2019-01-24T05:22:39.857Z,80.37
2019-01-24T05:25:08.899Z,87.00
2019-01-24T05:27:36.426Z,75.80
2019-01-24T05:30:05.228Z,81.50
2019-01-24T05:32:32.505Z,77.60
2019-01-24T05:34:59.754Z,84.33
2019-01-24T05:37:27.005Z,73.23
2019-01-24T05:39:54.300Z,83.10
2019-01-24T05:42:21.551Z,79.57
2019-01-24T05:44:48.838Z,79.97
2019-01-24T05:47:16.098Z,82.60
2019-01-24T05:49:43.384Z,87.67
2019-01-24T05:52:10.907Z,86.07
2019-01-24T05:54:38.163Z,90.63
2019-01-24T05:57:05.441Z,84.80
2019-01-24T05:59:32.698Z,77.20
2019-01-24T06:02:00.156Z,78.67
2019-01-24T06:04:27.409Z,86.00
2019-01-24T06:06:54.738Z,77.43
2019-01-24T06:09:22.049Z,82.70
2019-01-24T06:11:49.557Z,85.53
2019-01-24T06:14:16.851Z,86.37
2019-01-24T06:16:44.106Z,85.80
2019-01-24T06:19:11.394Z,85.27
2019-01-24T06:21:38.650Z,77.97
2019-01-24T06:24:05.929Z,82.67
2019-01-24T06:26:33.186Z,80.40
2019-01-24T06:29:02.899Z,79.93
2019-01-24T06:31:29.469Z,90.63
2019-01-24T06:33:56.729Z,84.20
2019-01-24T06:36:24.012Z,83.37
2019-01-24T06:38:51.548Z,79.00
2019-01-24T06:41:19.078Z,76.07
2019-01-24T06:43:46.326Z,82.40
2019-01-24T06:46:13.607Z,78.73
2019-01-24T06:48:40.974Z,84.73
2019-01-24T06:51:08.506Z,85.93
2019-01-24T06:53:36.014Z,81.80
2019-01-24T06:56:03.561Z,74.53
2019-01-24T06:58:30.830Z,81.50
2019-01-24T07:00:58.329Z,80.83
2019-01-24T07:03:25.616Z,79.07
2019-01-24T07:05:55.529Z,70.63
2019-01-24T07:08:21.942Z,75.47
2019-01-24T07:10:49.442Z,84.93
2019-01-24T07:13:16.726Z,85.20
2019-01-24T07:15:43.981Z,84.80
2019-01-24T07:18:11.348Z,82.97
2019-01-24T07:20:38.849Z,89.50
2019-01-24T07:23:06.422Z,84.87
2019-01-24T07:25:33.954Z,82.73
2019-01-24T07:28:01.603Z,82.47
2019-01-24T07:30:28.882Z,79.80
2019-01-24T07:32:56.154Z,85.43
2019-01-24T07:35:23.443Z,80.70
2019-01-24T07:37:50.947Z,79.40
2019-01-24T07:40:18.968Z,76.50
2019-01-24T07:42:46.394Z,75.17
2019-01-24T07:45:15.214Z,82.77
2019-01-24T07:47:42.569Z,88.22
2019-01-24T07:50:11.203Z,75.63
2019-01-24T07:52:38.486Z,88.90
2019-01-24T07:55:06.805Z,85.57
2019-01-24T07:57:34.090Z,85.10
2019-01-24T08:00:01.341Z,82.97
2019-01-24T08:02:28.646Z,83.30
2019-01-24T08:04:55.897Z,82.60
2019-01-24T08:07:23.189Z,84.40
2019-01-24T08:09:50.694Z,84.40
2019-01-24T08:12:17.946Z,80.37
2019-01-24T08:14:45.489Z,76.80
2019-01-24T08:17:12.781Z,79.93
2019-01-24T08:19:40.296Z,81.70
2019-01-24T08:22:07.548Z,77.70
2019-01-24T08:24:34.896Z,77.00
2019-01-24T08:27:02.140Z,81.53
2019-01-24T08:29:29.669Z,80.00
2019-01-24T08:31:56.925Z,88.13
2019-01-24T08:34:24.458Z,76.73
2019-01-24T08:36:51.738Z,75.13
2019-01-24T08:39:19.018Z,70.53
2019-01-24T08:41:46.271Z,79.97
2019-01-24T08:44:13.557Z,70.83
2019-01-24T08:46:40.804Z,73.67
2019-01-24T08:49:08.086Z,74.90
2019-01-24T08:51:35.337Z,75.60
2019-01-24T08:54:02.616Z,78.17
2019-01-24T08:56:29.875Z,67.57
2019-01-24T08:58:57.158Z,82.17
2019-01-24T09:01:24.433Z,75.03
2019-01-24T09:03:51.958Z,73.67
2019-01-24T09:06:22.649Z,71.07
2019-01-24T09:08:48.218Z,78.70
2019-01-24T09:11:15.573Z,67.33
2019-01-24T09:13:43.078Z,66.83
2019-01-24T09:16:10.604Z,65.30
2019-01-24T09:18:37.867Z,65.13
2019-01-24T09:21:05.134Z,57.20
2019-01-24T09:23:32.643Z,61.10
2019-01-24T09:25:59.923Z,76.20
2019-01-24T09:28:27.208Z,69.73
2019-01-24T09:30:54.718Z,60.00
2019-01-24T09:33:22.260Z,65.73
2019-01-24T09:35:49.509Z,63.43
2019-01-24T09:38:16.785Z,61.50
2019-01-24T09:40:44.303Z,60.97
2019-01-24T09:43:11.570Z,56.70
2019-01-24T09:45:38.825Z,62.83
2019-01-24T09:48:07.150Z,58.10
2019-01-24T09:50:34.686Z,65.30
2019-01-24T09:53:02.051Z,70.33
2019-01-24T09:55:29.558Z,59.23
2019-01-24T09:57:57.054Z,54.20
2019-01-24T10:00:25.869Z,62.27
2019-01-24T10:02:53.269Z,64.73
2019-01-24T10:05:20.546Z,63.13
2019-01-24T10:07:47.865Z,68.90
2019-01-24T10:10:16.683Z,66.67
2019-01-24T10:12:44.445Z,63.23
2019-01-24T10:15:12.808Z,76.03
2019-01-24T10:17:40.058Z,68.60
2019-01-24T10:20:11.749Z,66.90
2019-01-24T10:22:39.106Z,62.73
2019-01-24T10:25:13.678Z,59.87
2019-01-24T10:27:41.178Z,62.60
2019-01-24T10:30:10.263Z,62.33
2019-01-24T10:32:37.518Z,57.37
2019-01-24T10:35:05.070Z,55.70
2019-01-24T10:37:32.823Z,53.57
2019-01-24T10:40:00.280Z,56.57
2019-01-24T10:42:27.999Z,57.30
2019-01-24T10:44:55.281Z,58.53
2019-01-24T10:47:22.636Z,54.23
2019-01-24T10:49:49.886Z,49.70
2019-01-24T10:52:18.700Z,50.73
2019-01-24T10:54:46.206Z,51.97
2019-01-24T10:57:13.479Z,47.30
2019-01-24T10:59:41.018Z,56.97
2019-01-24T11:02:08.334Z,52.00
2019-01-24T11:04:35.618Z,55.93
2019-01-24T11:07:02.942Z,52.87
2019-01-24T11:09:30.475Z,54.13
2019-01-24T11:11:57.759Z,51.90
2019-01-24T11:14:25.050Z,51.10
2019-01-24T11:16:52.554Z,53.20
2019-01-24T11:19:19.803Z,46.53
2019-01-24T11:21:47.334Z,54.43
2019-01-24T11:24:14.587Z,52.40
2019-01-24T11:26:41.867Z,56.27
2019-01-24T11:29:09.362Z,57.97
2019-01-24T11:31:36.638Z,54.20
2019-01-24T11:34:04.089Z,56.30
2019-01-24T11:36:31.342Z,53.40
2019-01-24T11:38:58.619Z,49.30
2019-01-24T11:41:25.913Z,47.40
2019-01-24T11:43:53.168Z,54.60
2019-01-24T11:46:20.670Z,52.47
2019-01-24T11:48:47.962Z,42.37
2019-01-24T11:51:15.463Z,43.70
2019-01-24T11:53:42.725Z,47.07
2019-01-24T11:56:10.086Z,45.40
2019-01-24T11:58:37.370Z,48.87
2019-01-24T12:01:04.694Z,38.33
2019-01-24T12:03:31.970Z,43.10
2019-01-24T12:05:59.226Z,41.87
2019-01-24T12:08:26.569Z,37.60
2019-01-24T12:10:53.816Z,41.17
2019-01-24T12:13:21.098Z,38.50
2019-01-24T12:15:48.608Z,43.47
2019-01-24T12:18:15.961Z,43.47
2019-01-24T12:20:43.214Z,40.53
2019-01-24T12:23:10.489Z,40.07
2019-01-24T12:25:37.738Z,34.80
2019-01-24T12:28:05.082Z,40.10
2019-01-24T12:30:33.869Z,45.23
2019-01-24T12:33:01.425Z,44.63
2019-01-24T12:35:29.098Z,51.93
2019-01-24T12:37:56.630Z,40.03
2019-01-24T12:40:24.164Z,46.63
2019-01-24T12:42:52.171Z,45.80
2019-01-24T12:45:20.698Z,40.17
2019-01-24T12:47:47.988Z,43.67
2019-01-24T12:50:16.806Z,42.93
2019-01-24T12:52:44.302Z,53.30
2019-01-24T12:55:12.133Z,42.20
2019-01-24T12:57:39.665Z,49.20
2019-01-24T13:00:14.465Z,45.03
2019-01-24T13:02:41.767Z,47.90
2019-01-24T13:05:09.881Z,40.70
2019-01-24T13:07:37.209Z,44.03
2019-01-24T13:10:06.031Z,41.30
2019-01-24T13:12:33.282Z,38.37
2019-01-24T13:15:00.564Z,40.70
2019-01-24T13:17:27.886Z,41.17
2019-01-24T13:19:55.382Z,45.37
2019-01-24T13:22:22.634Z,41.70
2019-01-24T13:24:49.910Z,43.77
2019-01-24T13:27:17.428Z,38.67
2019-01-24T13:29:44.713Z,40.83
2019-01-24T13:32:11.998Z,41.73
2019-01-24T13:34:39.519Z,45.20
2019-01-24T13:37:07.126Z,43.93
2019-01-24T13:39:34.412Z,42.40
2019-01-24T13:42:01.666Z,44.37
2019-01-24T13:44:28.947Z,38.93
2019-01-24T13:46:56.474Z,38.80
2019-01-24T13:49:23.752Z,45.50
2019-01-24T13:51:51.258Z,42.40
2019-01-24T13:54:18.547Z,41.43
2019-01-24T13:56:46.059Z,45.70
2019-01-24T13:59:13.344Z,44.73
2019-01-24T14:01:40.890Z,45.60
2019-01-24T14:04:09.965Z,47.63
2019-01-24T14:06:37.218Z,51.27
2019-01-24T14:09:06.259Z,46.07
2019-01-24T14:11:33.792Z,43.33
2019-01-24T14:14:01.306Z,48.07
2019-01-24T14:16:28.651Z,45.30
2019-01-24T14:18:56.159Z,48.60
2019-01-24T14:21:23.715Z,45.43
2019-01-24T14:23:50.970Z,42.83
2019-01-24T14:26:18.246Z,40.40
2019-01-24T14:28:45.526Z,43.10
2019-01-24T14:31:12.782Z,39.83
2019-01-24T14:33:40.057Z,45.30
2019-01-24T14:36:07.411Z,48.83
2019-01-24T14:38:36.304Z,48.87
2019-01-24T14:41:03.863Z,41.67
2019-01-24T14:43:31.397Z,43.17
2019-01-24T14:46:01.985Z,44.40
2019-01-24T14:48:29.819Z,40.90
2019-01-24T14:50:57.143Z,42.37
2019-01-24T14:53:24.437Z,45.80
2019-01-24T14:55:51.687Z,50.20
2019-01-24T14:58:18.949Z,41.37
2019-01-24T15:00:47.770Z,43.53
2019-01-24T15:03:15.314Z,39.97
2019-01-24T15:05:42.830Z,39.07
2019-01-24T15:08:10.114Z,41.93
2019-01-24T15:10:37.622Z,39.50
2019-01-24T15:13:05.074Z,47.10
2019-01-24T15:15:32.422Z,45.03
2019-01-24T15:17:59.713Z,47.27
2019-01-24T15:20:27.220Z,40.33
2019-01-24T15:22:54.469Z,40.47
2019-01-24T15:25:23.158Z,43.27
2019-01-24T15:27:50.694Z,42.50
2019-01-24T15:30:19.602Z,47.83
2019-01-24T15:32:46.863Z,45.43
2019-01-24T15:35:14.691Z,45.30
2019-01-24T15:37:41.983Z,44.60
2019-01-24T15:40:14.034Z,50.33
2019-01-24T15:42:41.353Z,47.20
2019-01-24T15:45:10.509Z,51.23
2019-01-24T15:47:37.873Z,45.40
2019-01-24T15:50:06.773Z,44.73
2019-01-24T15:52:34.224Z,47.17
2019-01-24T15:55:01.840Z,44.90
2019-01-24T15:57:29.734Z,47.30
2019-01-24T15:59:57.122Z,48.23
2019-01-24T16:02:24.441Z,52.80
2019-01-24T16:04:51.998Z,48.60
2019-01-24T16:07:19.548Z,49.97
2019-01-24T16:09:46.898Z,46.03
2019-01-24T16:12:14.343Z,45.20
2019-01-24T16:14:41.696Z,47.67
2019-01-24T16:17:08.947Z,49.97
2019-01-24T16:19:36.485Z,47.37
2019-01-24T16:22:04.222Z,52.73
2019-01-24T16:24:31.754Z,46.00
2019-01-24T16:26:59.298Z,44.97
2019-01-24T16:29:26.907Z,47.80
2019-01-24T16:31:54.154Z,48.37
2019-01-24T16:34:21.406Z,56.60
2019-01-24T16:36:49.070Z,44.07
2019-01-24T16:39:16.328Z,47.57
2019-01-24T16:41:43.852Z,44.80
2019-01-24T16:44:11.354Z,48.77
2019-01-24T16:46:38.711Z,44.00
2019-01-24T16:49:06.476Z,42.60
2019-01-24T16:51:33.733Z,46.97
2019-01-24T16:54:01.048Z,48.00
2019-01-24T16:56:28.403Z,42.67
2019-01-24T16:58:55.658Z,50.83
2019-01-24T17:01:23.209Z,43.17
2019-01-24T17:03:50.486Z,48.80
2019-01-24T17:06:17.809Z,50.60
2019-01-24T17:08:45.257Z,42.80
2019-01-24T17:11:12.534Z,45.60
2019-01-24T17:13:39.862Z,46.10
2019-01-24T17:16:07.218Z,43.60
2019-01-24T17:18:34.786Z,46.30
2019-01-24T17:21:02.158Z,51.87
2019-01-24T17:23:29.669Z,47.50
2019-01-24T17:25:56.947Z,44.33
2019-01-24T17:28:24.474Z,46.80
2019-01-24T17:30:52.011Z,48.53
2019-01-24T17:33:19.519Z,50.13
2019-01-24T17:35:46.794Z,50.17
2019-01-24T17:38:15.440Z,47.20
2019-01-24T17:40:42.856Z,47.40
2019-01-24T17:43:10.201Z,48.80
2019-01-24T17:45:37.734Z,50.63
2019-01-24T17:48:05.357Z,49.90
2019-01-24T17:50:32.636Z,52.30
2019-01-24T17:52:59.915Z,50.00
2019-01-24T17:55:28.355Z,52.53
2019-01-24T17:57:55.669Z,53.80
2019-01-24T18:00:24.237Z,51.00
2019-01-24T18:02:51.521Z,56.30
2019-01-24T18:05:18.806Z,53.40
2019-01-24T18:07:46.099Z,52.67
2019-01-24T18:10:14.953Z,56.70
2019-01-24T18:12:42.206Z,49.57
2019-01-24T18:15:11.034Z,52.80
2019-01-24T18:17:38.292Z,55.77
2019-01-24T18:20:07.077Z,53.47
2019-01-24T18:22:34.442Z,52.57
2019-01-24T18:25:01.762Z,52.70
2019-01-24T18:27:29.114Z,50.93
2019-01-24T18:29:56.415Z,48.53
2019-01-24T18:32:23.832Z,55.40
2019-01-24T18:34:51.366Z,50.30
2019-01-24T18:37:18.654Z,59.00
2019-01-24T18:39:45.909Z,54.50
2019-01-24T18:42:13.186Z,50.50
2019-01-24T18:44:40.437Z,57.57
2019-01-24T18:47:07.959Z,48.83
2019-01-24T18:49:35.210Z,55.80
2019-01-24T18:52:02.495Z,48.57
2019-01-24T18:54:29.748Z,49.20
2019-01-24T18:56:57.298Z,51.30
2019-01-24T18:59:24.638Z,49.43
2019-01-24T19:01:51.925Z,50.27
2019-01-24T19:04:19.176Z,57.37
2019-01-24T19:06:46.458Z,51.13
2019-01-24T19:09:13.779Z,55.77
2019-01-24T19:11:41.150Z,55.10
2019-01-24T19:14:08.707Z,53.50
2019-01-24T19:16:42.390Z,52.20
2019-01-24T19:19:12.249Z,54.93
2019-01-24T19:21:56.048Z,64.87
2019-01-24T19:24:46.710Z,59.07
2019-01-24T19:27:14.076Z,46.53
2019-01-24T19:29:41.972Z,52.10
2019-01-24T19:32:13.947Z,51.93
2019-01-24T19:34:41.869Z,51.20
2019-01-24T19:37:09.123Z,47.93
2019-01-24T19:39:36.418Z,50.20
2019-01-24T19:42:03.933Z,55.73
2019-01-24T19:44:31.445Z,50.30
2019-01-24T19:46:58.979Z,58.70
2019-01-24T19:49:26.221Z,50.97
2019-01-24T19:51:53.751Z,67.90
2019-01-24T19:54:21.052Z,54.37
2019-01-24T19:56:48.648Z,52.20
2019-01-24T19:59:15.930Z,51.87
2019-01-24T20:01:43.210Z,51.90
2019-01-24T20:04:10.495Z,57.07
2019-01-24T20:06:38.075Z,50.13
2019-01-24T20:09:07.278Z,62.67
2019-01-24T20:11:35.002Z,54.67
2019-01-24T20:14:02.362Z,50.00
2019-01-24T20:16:29.613Z,52.83
2019-01-24T20:18:57.154Z,50.27
2019-01-24T20:21:24.406Z,53.93
2019-01-24T20:23:51.687Z,57.47
2019-01-24T20:26:19.641Z,59.77
2019-01-24T20:28:47.054Z,52.17
2019-01-24T20:31:14.598Z,60.00
2019-01-24T20:33:41.853Z,57.63
2019-01-24T20:36:09.374Z,52.40
2019-01-24T20:38:36.937Z,53.83
2019-01-24T20:41:04.226Z,59.33
2019-01-24T20:43:35.591Z,48.10
2019-01-24T20:46:01.213Z,54.10
2019-01-24T20:48:28.529Z,49.13
2019-01-24T20:50:55.786Z,63.43
2019-01-24T20:53:23.315Z,56.80
2019-01-24T20:55:50.566Z,57.50
2019-01-24T20:58:17.833Z,56.57
2019-01-24T21:00:45.337Z,54.73
2019-01-24T21:03:12.871Z,60.77
2019-01-24T21:05:40.126Z,59.70
2019-01-24T21:08:07.646Z,53.10
2019-01-24T21:10:34.978Z,55.70
2019-01-24T21:13:02.259Z,50.83
2019-01-24T21:15:29.761Z,60.03
2019-01-24T21:17:57.294Z,59.90
2019-01-24T21:20:26.117Z,56.47
2019-01-24T21:22:53.786Z,60.57
2019-01-24T21:25:21.997Z,53.63
2019-01-24T21:27:49.590Z,64.10
2019-01-24T21:30:18.381Z,61.57
2019-01-24T21:32:45.662Z,60.20
2019-01-24T21:35:13.471Z,61.00
2019-01-24T21:37:41.018Z,70.37
2019-01-24T21:40:09.806Z,62.30
2019-01-24T21:42:37.068Z,62.93
2019-01-24T21:45:06.110Z,59.73
2019-01-24T21:47:33.610Z,61.13
2019-01-24T21:50:01.144Z,60.83
2019-01-24T21:52:28.405Z,67.80
2019-01-24T21:54:55.768Z,64.57
2019-01-24T21:57:23.053Z,57.03
2019-01-24T21:59:50.615Z,56.10
2019-01-24T22:02:17.901Z,56.63
2019-01-24T22:04:45.454Z,57.50
2019-01-24T22:07:12.979Z,56.97
2019-01-24T22:09:40.538Z,59.60
2019-01-24T22:12:08.051Z,59.43
2019-01-24T22:14:35.318Z,54.10
2019-01-24T22:17:02.575Z,59.50
2019-01-24T22:19:29.858Z,57.67
2019-01-24T22:21:57.222Z,67.83
2019-01-24T22:24:24.473Z,55.30
2019-01-24T22:26:51.833Z,56.50
2019-01-24T22:29:19.086Z,62.97
2019-01-24T22:31:46.361Z,56.30
2019-01-24T22:34:13.898Z,62.97
2019-01-24T22:36:41.178Z,62.80
2019-01-24T22:39:08.734Z,51.53
2019-01-24T22:41:36.070Z,54.93
2019-01-24T22:44:03.806Z,54.50
2019-01-24T22:46:31.093Z,61.20
2019-01-24T22:48:58.631Z,60.10
2019-01-24T22:51:25.888Z,62.73
2019-01-24T22:53:53.394Z,57.30
2019-01-24T22:56:20.662Z,57.50
2019-01-24T22:58:47.946Z,62.13
2019-01-24T23:01:20.047Z,59.10
2019-01-24T23:03:47.501Z,59.43
2019-01-24T23:06:15.062Z,58.73
2019-01-24T23:08:42.347Z,56.33
2019-01-24T23:11:09.874Z,57.40
2019-01-24T23:13:37.382Z,61.83
2019-01-24T23:16:04.986Z,56.07
2019-01-24T23:18:32.272Z,56.40
2019-01-24T23:20:59.822Z,60.10
2019-01-24T23:23:27.098Z,65.53
2019-01-24T23:25:54.418Z,54.20
2019-01-24T23:28:21.706Z,58.77
2019-01-24T23:30:48.950Z,54.10
2019-01-24T23:33:16.470Z,62.50
2019-01-24T23:35:43.822Z,56.70
2019-01-24T23:38:11.401Z,54.40
2019-01-24T23:40:38.945Z,61.13
2019-01-24T23:43:06.538Z,63.23
2019-01-24T23:45:33.789Z,62.10
2019-01-24T23:48:01.063Z,57.90
2019-01-24T23:50:28.410Z,62.63
2019-01-24T23:52:55.691Z,61.83
2019-01-24T23:55:22.970Z,66.57
2019-01-24T23:57:50.476Z,58.70
